sensor_id;sensor_type;location;lat;lon;timestamp;P1;durP1;ratioP1;P2;durP2;ratioP2
14754;SDS011;7469;50.906;6.952;2023-05-20T00:01:46;4.47;;;1.83;;
14754;SDS011;7469;50.906;6.952;2023-05-20T00:04:14;4.27;;;1.97;;
14754;SDS011;7469;50.906;6.952;2023-05-20T00:06:42;4.10;;;2.03;;
14754;SDS011;7469;50.906;6.952;2023-05-20T00:09:10;4.90;;;2.20;;
14754;SDS011;7469;50.906;6.952;2023-05-20T00:11:38;3.23;;;2.33;;
14754;SDS011;7469;50.906;6.952;2023-05-20T00:14:06;3.00;;;1.67;;
14754;SDS011;7469;50.906;6.952;2023-05-20T00:16:36;3.20;;;1.83;;
14754;SDS011;7469;50.906;6.952;2023-05-20T00:19:04;2.20;;;1.97;;
14754;SDS011;7469;50.906;6.952;2023-05-20T00:21:32;3.00;;;1.90;;
14754;SDS011;7469;50.906;6.952;2023-05-20T00:24:00;4.50;;;1.90;;
14754;SDS011;7469;50.906;6.952;2023-05-20T00:26:28;1.87;;;1.70;;
14754;SDS011;7469;50.906;6.952;2023-05-20T00:28:57;3.67;;;1.93;;
14754;SDS011;7469;50.906;6.952;2023-05-20T00:31:25;2.47;;;2.00;;
14754;SDS011;7469;50.906;6.952;2023-05-20T00:33:54;2.77;;;1.93;;
14754;SDS011;7469;50.906;6.952;2023-05-20T00:36:22;4.57;;;1.97;;
14754;SDS011;7469;50.906;6.952;2023-05-20T00:38:50;4.67;;;1.93;;
14754;SDS011;7469;50.906;6.952;2023-05-20T00:41:18;3.07;;;1.90;;
14754;SDS011;7469;50.906;6.952;2023-05-20T00:43:47;2.17;;;1.77;;
14754;SDS011;7469;50.906;6.952;2023-05-20T00:46:14;3.37;;;2.20;;
14754;SDS011;7469;50.906;6.952;2023-05-20T00:48:45;3.67;;;1.70;;
14754;SDS011;7469;50.906;6.952;2023-05-20T00:51:15;3.33;;;2.00;;
14754;SDS011;7469;50.906;6.952;2023-05-20T00:53:43;4.93;;;1.97;;
14754;SDS011;7469;50.906;6.952;2023-05-20T00:56:12;3.80;;;1.93;;
14754;SDS011;7469;50.906;6.952;2023-05-20T00:58:40;2.23;;;1.80;;
14754;SDS011;7469;50.906;6.952;2023-05-20T01:01:09;2.93;;;2.00;;
14754;SDS011;7469;50.906;6.952;2023-05-20T01:03:37;3.07;;;1.83;;
14754;SDS011;7469;50.906;6.952;2023-05-20T01:06:05;2.90;;;1.97;;
14754;SDS011;7469;50.906;6.952;2023-05-20T01:08:34;2.63;;;1.97;;
14754;SDS011;7469;50.906;6.952;2023-05-20T01:11:03;2.20;;;2.00;;
14754;SDS011;7469;50.906;6.952;2023-05-20T01:13:34;2.27;;;1.70;;
14754;SDS011;7469;50.906;6.952;2023-05-20T01:16:06;3.60;;;2.20;;
14754;SDS011;7469;50.906;6.952;2023-05-20T01:18:36;2.43;;;2.00;;
14754;SDS011;7469;50.906;6.952;2023-05-20T01:21:07;3.13;;;1.90;;
14754;SDS011;7469;50.906;6.952;2023-05-20T01:23:41;2.27;;;1.80;;
14754;SDS011;7469;50.906;6.952;2023-05-20T01:26:09;4.60;;;1.67;;
14754;SDS011;7469;50.906;6.952;2023-05-20T01:28:39;2.27;;;1.70;;
14754;SDS011;7469;50.906;6.952;2023-05-20T01:31:10;3.73;;;2.00;;
14754;SDS011;7469;50.906;6.952;2023-05-20T01:33:45;5.03;;;1.90;;
14754;SDS011;7469;50.906;6.952;2023-05-20T01:36:18;2.63;;;1.73;;
14754;SDS011;7469;50.906;6.952;2023-05-20T01:38:49;2.83;;;2.13;;
14754;SDS011;7469;50.906;6.952;2023-05-20T01:41:19;2.13;;;1.97;;
14754;SDS011;7469;50.906;6.952;2023-05-20T01:43:48;3.77;;;2.10;;
14754;SDS011;7469;50.906;6.952;2023-05-20T01:46:16;5.53;;;1.90;;
14754;SDS011;7469;50.906;6.952;2023-05-20T01:48:44;2.80;;;1.80;;
14754;SDS011;7469;50.906;6.952;2023-05-20T01:51:12;2.10;;;1.90;;
14754;SDS011;7469;50.906;6.952;2023-05-20T01:53:40;1.90;;;1.70;;
14754;SDS011;7469;50.906;6.952;2023-05-20T01:56:09;1.63;;;1.53;;
14754;SDS011;7469;50.906;6.952;2023-05-20T02:01:19;2.10;;;1.90;;
14754;SDS011;7469;50.906;6.952;2023-05-20T02:03:47;3.13;;;1.83;;
14754;SDS011;7469;50.906;6.952;2023-05-20T02:06:15;8.43;;;2.23;;
14754;SDS011;7469;50.906;6.952;2023-05-20T02:08:43;2.87;;;2.20;;
14754;SDS011;7469;50.906;6.952;2023-05-20T02:11:13;2.77;;;2.03;;
14754;SDS011;7469;50.906;6.952;2023-05-20T02:13:41;4.20;;;1.60;;
14754;SDS011;7469;50.906;6.952;2023-05-20T02:16:09;2.80;;;1.70;;
14754;SDS011;7469;50.906;6.952;2023-05-20T02:18:37;4.33;;;1.60;;
14754;SDS011;7469;50.906;6.952;2023-05-20T02:21:05;3.13;;;2.00;;
14754;SDS011;7469;50.906;6.952;2023-05-20T02:23:33;3.67;;;1.83;;
14754;SDS011;7469;50.906;6.952;2023-05-20T02:26:01;3.57;;;2.00;;
14754;SDS011;7469;50.906;6.952;2023-05-20T02:28:31;2.37;;;1.93;;
14754;SDS011;7469;50.906;6.952;2023-05-20T02:31:00;2.27;;;1.80;;
14754;SDS011;7469;50.906;6.952;2023-05-20T02:33:28;4.23;;;2.20;;
14754;SDS011;7469;50.906;6.952;2023-05-20T02:35:56;3.00;;;1.83;;
14754;SDS011;7469;50.906;6.952;2023-05-20T02:38:24;2.73;;;1.87;;
14754;SDS011;7469;50.906;6.952;2023-05-20T02:40:52;3.80;;;2.07;;
14754;SDS011;7469;50.906;6.952;2023-05-20T02:43:20;3.80;;;2.20;;
14754;SDS011;7469;50.906;6.952;2023-05-20T02:45:50;2.50;;;1.73;;
14754;SDS011;7469;50.906;6.952;2023-05-20T02:48:18;4.03;;;2.03;;
14754;SDS011;7469;50.906;6.952;2023-05-20T02:50:46;2.37;;;2.00;;
14754;SDS011;7469;50.906;6.952;2023-05-20T02:53:14;1.87;;;1.63;;
14754;SDS011;7469;50.906;6.952;2023-05-20T02:55:42;3.33;;;1.90;;
14754;SDS011;7469;50.906;6.952;2023-05-20T02:58:12;4.20;;;1.73;;
14754;SDS011;7469;50.906;6.952;2023-05-20T03:00:40;3.97;;;2.00;;
14754;SDS011;7469;50.906;6.952;2023-05-20T03:03:10;3.30;;;1.90;;
14754;SDS011;7469;50.906;6.952;2023-05-20T03:05:39;2.27;;;1.80;;
14754;SDS011;7469;50.906;6.952;2023-05-20T03:08:08;3.07;;;1.87;;
14754;SDS011;7469;50.906;6.952;2023-05-20T03:10:36;2.40;;;2.17;;
14754;SDS011;7469;50.906;6.952;2023-05-20T03:13:05;2.50;;;2.30;;
14754;SDS011;7469;50.906;6.952;2023-05-20T03:18:04;6.10;;;2.17;;
14754;SDS011;7469;50.906;6.952;2023-05-20T03:20:35;4.03;;;1.80;;
14754;SDS011;7469;50.906;6.952;2023-05-20T03:23:03;2.83;;;2.10;;
14754;SDS011;7469;50.906;6.952;2023-05-20T03:25:32;4.13;;;2.10;;
14754;SDS011;7469;50.906;6.952;2023-05-20T03:28:00;2.57;;;2.00;;
14754;SDS011;7469;50.906;6.952;2023-05-20T03:30:29;2.97;;;2.00;;
14754;SDS011;7469;50.906;6.952;2023-05-20T03:32:57;2.20;;;2.00;;
14754;SDS011;7469;50.906;6.952;2023-05-20T03:35:28;4.20;;;2.23;;
14754;SDS011;7469;50.906;6.952;2023-05-20T03:37:57;3.30;;;1.80;;
14754;SDS011;7469;50.906;6.952;2023-05-20T03:40:27;3.50;;;2.00;;
14754;SDS011;7469;50.906;6.952;2023-05-20T03:42:55;3.20;;;1.97;;
14754;SDS011;7469;50.906;6.952;2023-05-20T03:45:23;3.50;;;2.10;;
14754;SDS011;7469;50.906;6.952;2023-05-20T03:47:51;5.87;;;2.20;;
14754;SDS011;7469;50.906;6.952;2023-05-20T03:50:19;2.30;;;1.90;;
14754;SDS011;7469;50.906;6.952;2023-05-20T03:52:47;4.50;;;2.20;;
14754;SDS011;7469;50.906;6.952;2023-05-20T03:55:17;3.83;;;2.20;;
14754;SDS011;7469;50.906;6.952;2023-05-20T03:57:45;2.30;;;2.10;;
14754;SDS011;7469;50.906;6.952;2023-05-20T04:00:13;2.33;;;2.13;;
14754;SDS011;7469;50.906;6.952;2023-05-20T04:02:42;4.03;;;2.50;;
14754;SDS011;7469;50.906;6.952;2023-05-20T04:05:11;3.27;;;2.30;;
14754;SDS011;7469;50.906;6.952;2023-05-20T04:07:39;4.27;;;2.33;;
14754;SDS011;7469;50.906;6.952;2023-05-20T04:10:08;4.83;;;2.40;;
14754;SDS011;7469;50.906;6.952;2023-05-20T04:15:08;3.27;;;2.23;;
14754;SDS011;7469;50.906;6.952;2023-05-20T04:17:36;5.40;;;2.60;;
14754;SDS011;7469;50.906;6.952;2023-05-20T04:20:06;4.97;;;2.20;;
14754;SDS011;7469;50.906;6.952;2023-05-20T04:22:36;2.53;;;2.30;;
14754;SDS011;7469;50.906;6.952;2023-05-20T04:25:05;4.03;;;1.90;;
14754;SDS011;7469;50.906;6.952;2023-05-20T04:27:33;3.33;;;2.30;;
14754;SDS011;7469;50.906;6.952;2023-05-20T04:30:04;4.77;;;2.57;;
14754;SDS011;7469;50.906;6.952;2023-05-20T04:32:33;3.50;;;2.50;;
14754;SDS011;7469;50.906;6.952;2023-05-20T04:35:01;2.97;;;2.13;;
14754;SDS011;7469;50.906;6.952;2023-05-20T04:37:33;6.13;;;2.63;;
14754;SDS011;7469;50.906;6.952;2023-05-20T04:40:03;6.03;;;2.40;;
14754;SDS011;7469;50.906;6.952;2023-05-20T04:42:32;3.70;;;2.47;;
14754;SDS011;7469;50.906;6.952;2023-05-20T04:45:00;5.67;;;2.60;;
14754;SDS011;7469;50.906;6.952;2023-05-20T04:47:32;5.03;;;2.90;;
14754;SDS011;7469;50.906;6.952;2023-05-20T04:50:05;3.97;;;2.37;;
14754;SDS011;7469;50.906;6.952;2023-05-20T04:52:36;3.63;;;2.23;;
14754;SDS011;7469;50.906;6.952;2023-05-20T04:55:04;4.13;;;2.13;;
14754;SDS011;7469;50.906;6.952;2023-05-20T04:57:35;5.77;;;2.50;;
14754;SDS011;7469;50.906;6.952;2023-05-20T05:00:05;4.40;;;2.20;;
14754;SDS011;7469;50.906;6.952;2023-05-20T05:02:35;4.33;;;2.70;;
14754;SDS011;7469;50.906;6.952;2023-05-20T05:05:04;3.47;;;2.40;;
14754;SDS011;7469;50.906;6.952;2023-05-20T05:07:33;3.17;;;2.70;;
14754;SDS011;7469;50.906;6.952;2023-05-20T05:10:01;3.93;;;2.83;;
14754;SDS011;7469;50.906;6.952;2023-05-20T05:12:29;3.60;;;2.10;;
14754;SDS011;7469;50.906;6.952;2023-05-20T05:14:57;4.33;;;2.93;;
14754;SDS011;7469;50.906;6.952;2023-05-20T05:17:25;4.13;;;2.47;;
14754;SDS011;7469;50.906;6.952;2023-05-20T05:19:55;4.37;;;2.63;;
14754;SDS011;7469;50.906;6.952;2023-05-20T05:22:23;4.40;;;2.80;;
14754;SDS011;7469;50.906;6.952;2023-05-20T05:24:52;2.30;;;2.07;;
14754;SDS011;7469;50.906;6.952;2023-05-20T05:27:20;2.73;;;2.50;;
14754;SDS011;7469;50.906;6.952;2023-05-20T05:29:49;3.63;;;2.63;;
14754;SDS011;7469;50.906;6.952;2023-05-20T05:32:17;4.23;;;2.50;;
14754;SDS011;7469;50.906;6.952;2023-05-20T05:34:45;5.07;;;2.73;;
14754;SDS011;7469;50.906;6.952;2023-05-20T05:37:14;2.83;;;2.63;;
14754;SDS011;7469;50.906;6.952;2023-05-20T05:39:42;3.20;;;2.60;;
14754;SDS011;7469;50.906;6.952;2023-05-20T05:42:10;2.57;;;2.37;;
14754;SDS011;7469;50.906;6.952;2023-05-20T05:44:38;5.27;;;3.03;;
14754;SDS011;7469;50.906;6.952;2023-05-20T05:47:06;4.77;;;2.63;;
14754;SDS011;7469;50.906;6.952;2023-05-20T05:49:34;4.63;;;2.70;;
14754;SDS011;7469;50.906;6.952;2023-05-20T05:52:02;3.57;;;2.20;;
14754;SDS011;7469;50.906;6.952;2023-05-20T05:54:33;4.20;;;2.40;;
14754;SDS011;7469;50.906;6.952;2023-05-20T05:57:01;2.50;;;2.13;;
14754;SDS011;7469;50.906;6.952;2023-05-20T05:59:31;2.67;;;2.40;;
14754;SDS011;7469;50.906;6.952;2023-05-20T06:01:59;3.00;;;2.40;;
14754;SDS011;7469;50.906;6.952;2023-05-20T06:04:28;4.27;;;2.40;;
14754;SDS011;7469;50.906;6.952;2023-05-20T06:06:56;3.87;;;2.50;;
14754;SDS011;7469;50.906;6.952;2023-05-20T06:09:24;3.80;;;2.93;;
14754;SDS011;7469;50.906;6.952;2023-05-20T06:11:54;5.30;;;3.17;;
14754;SDS011;7469;50.906;6.952;2023-05-20T06:14:21;3.20;;;2.67;;
14754;SDS011;7469;50.906;6.952;2023-05-20T06:16:49;4.73;;;2.90;;
14754;SDS011;7469;50.906;6.952;2023-05-20T06:19:18;3.60;;;2.60;;
14754;SDS011;7469;50.906;6.952;2023-05-20T06:21:46;3.60;;;2.57;;
14754;SDS011;7469;50.906;6.952;2023-05-20T06:24:14;2.83;;;2.57;;
14754;SDS011;7469;50.906;6.952;2023-05-20T06:26:42;7.63;;;3.00;;
14754;SDS011;7469;50.906;6.952;2023-05-20T06:29:12;3.50;;;2.40;;
14754;SDS011;7469;50.906;6.952;2023-05-20T06:31:40;3.93;;;2.80;;
14754;SDS011;7469;50.906;6.952;2023-05-20T06:34:08;5.97;;;2.87;;
14754;SDS011;7469;50.906;6.952;2023-05-20T06:36:37;4.97;;;2.67;;
14754;SDS011;7469;50.906;6.952;2023-05-20T06:39:05;2.77;;;2.40;;
14754;SDS011;7469;50.906;6.952;2023-05-20T06:41:38;3.20;;;2.70;;
14754;SDS011;7469;50.906;6.952;2023-05-20T06:44:06;4.80;;;2.70;;
14754;SDS011;7469;50.906;6.952;2023-05-20T06:46:36;3.27;;;2.43;;
14754;SDS011;7469;50.906;6.952;2023-05-20T06:49:04;3.43;;;2.47;;
14754;SDS011;7469;50.906;6.952;2023-05-20T06:51:32;2.60;;;2.30;;
14754;SDS011;7469;50.906;6.952;2023-05-20T06:54:00;5.87;;;2.90;;
14754;SDS011;7469;50.906;6.952;2023-05-20T06:56:28;2.93;;;2.40;;
14754;SDS011;7469;50.906;6.952;2023-05-20T06:58:56;6.13;;;2.27;;
14754;SDS011;7469;50.906;6.952;2023-05-20T07:01:24;6.13;;;2.80;;
14754;SDS011;7469;50.906;6.952;2023-05-20T07:03:54;8.10;;;2.70;;
14754;SDS011;7469;50.906;6.952;2023-05-20T07:06:22;4.17;;;2.53;;
14754;SDS011;7469;50.906;6.952;2023-05-20T07:08:50;2.33;;;2.10;;
14754;SDS011;7469;50.906;6.952;2023-05-20T07:11:18;3.40;;;2.30;;
14754;SDS011;7469;50.906;6.952;2023-05-20T07:13:46;3.83;;;2.40;;
14754;SDS011;7469;50.906;6.952;2023-05-20T07:16:15;5.10;;;2.50;;
14754;SDS011;7469;50.906;6.952;2023-05-20T07:18:43;2.47;;;2.27;;
14754;SDS011;7469;50.906;6.952;2023-05-20T07:21:12;2.43;;;2.23;;
14754;SDS011;7469;50.906;6.952;2023-05-20T07:23:40;4.07;;;2.23;;
14754;SDS011;7469;50.906;6.952;2023-05-20T07:26:08;3.73;;;2.40;;
14754;SDS011;7469;50.906;6.952;2023-05-20T07:28:36;2.60;;;2.40;;
14754;SDS011;7469;50.906;6.952;2023-05-20T07:31:05;4.13;;;2.30;;
14754;SDS011;7469;50.906;6.952;2023-05-20T07:33:33;6.60;;;2.47;;
14754;SDS011;7469;50.906;6.952;2023-05-20T07:36:01;3.73;;;2.70;;
14754;SDS011;7469;50.906;6.952;2023-05-20T07:38:30;4.40;;;2.47;;
14754;SDS011;7469;50.906;6.952;2023-05-20T07:40:58;7.07;;;2.37;;
14754;SDS011;7469;50.906;6.952;2023-05-20T07:43:27;3.13;;;2.30;;
14754;SDS011;7469;50.906;6.952;2023-05-20T07:45:55;3.20;;;2.50;;
14754;SDS011;7469;50.906;6.952;2023-05-20T07:48:23;3.00;;;2.43;;
14754;SDS011;7469;50.906;6.952;2023-05-20T07:50:51;2.53;;;2.33;;
14754;SDS011;7469;50.906;6.952;2023-05-20T07:53:22;3.37;;;2.27;;
14754;SDS011;7469;50.906;6.952;2023-05-20T07:55:51;4.17;;;2.70;;
14754;SDS011;7469;50.906;6.952;2023-05-20T07:58:19;5.23;;;2.53;;
14754;SDS011;7469;50.906;6.952;2023-05-20T08:00:48;3.33;;;2.60;;
14754;SDS011;7469;50.906;6.952;2023-05-20T08:03:16;5.37;;;2.80;;
14754;SDS011;7469;50.906;6.952;2023-05-20T08:05:44;3.80;;;2.40;;
14754;SDS011;7469;50.906;6.952;2023-05-20T08:08:12;6.00;;;2.50;;
14754;SDS011;7469;50.906;6.952;2023-05-20T08:10:41;5.57;;;2.20;;
14754;SDS011;7469;50.906;6.952;2023-05-20T08:13:10;2.60;;;2.10;;
14754;SDS011;7469;50.906;6.952;2023-05-20T08:15:38;3.43;;;2.20;;
14754;SDS011;7469;50.906;6.952;2023-05-20T08:18:06;4.40;;;2.57;;
14754;SDS011;7469;50.906;6.952;2023-05-20T08:20:34;2.43;;;2.10;;
14754;SDS011;7469;50.906;6.952;2023-05-20T08:23:02;4.83;;;2.53;;
14754;SDS011;7469;50.906;6.952;2023-05-20T08:25:30;3.73;;;2.60;;
14754;SDS011;7469;50.906;6.952;2023-05-20T08:28:00;5.50;;;2.50;;
14754;SDS011;7469;50.906;6.952;2023-05-20T08:30:30;3.17;;;2.60;;
14754;SDS011;7469;50.906;6.952;2023-05-20T08:32:59;3.80;;;2.30;;
14754;SDS011;7469;50.906;6.952;2023-05-20T08:35:27;5.40;;;2.70;;
14754;SDS011;7469;50.906;6.952;2023-05-20T08:37:55;4.13;;;2.40;;
14754;SDS011;7469;50.906;6.952;2023-05-20T08:40:23;5.77;;;2.80;;
14754;SDS011;7469;50.906;6.952;2023-05-20T08:42:53;4.30;;;2.73;;
14754;SDS011;7469;50.906;6.952;2023-05-20T08:45:22;5.50;;;2.57;;
14754;SDS011;7469;50.906;6.952;2023-05-20T08:47:55;3.90;;;2.40;;
14754;SDS011;7469;50.906;6.952;2023-05-20T08:50:24;4.00;;;2.57;;
14754;SDS011;7469;50.906;6.952;2023-05-20T08:52:52;4.37;;;2.60;;
14754;SDS011;7469;50.906;6.952;2023-05-20T08:55:23;3.40;;;2.17;;
14754;SDS011;7469;50.906;6.952;2023-05-20T08:57:53;2.90;;;2.47;;
14754;SDS011;7469;50.906;6.952;2023-05-20T09:00:21;2.40;;;2.20;;
14754;SDS011;7469;50.906;6.952;2023-05-20T09:03:00;2.93;;;2.47;;
14754;SDS011;7469;50.906;6.952;2023-05-20T09:05:29;3.53;;;2.67;;
14754;SDS011;7469;50.906;6.952;2023-05-20T09:08:04;2.40;;;2.20;;
14754;SDS011;7469;50.906;6.952;2023-05-20T09:10:34;3.03;;;2.60;;
14754;SDS011;7469;50.906;6.952;2023-05-20T09:13:02;2.70;;;2.20;;
14754;SDS011;7469;50.906;6.952;2023-05-20T09:15:31;4.63;;;2.33;;
14754;SDS011;7469;50.906;6.952;2023-05-20T09:18:02;3.33;;;2.20;;
14754;SDS011;7469;50.906;6.952;2023-05-20T09:20:32;2.40;;;2.20;;
14754;SDS011;7469;50.906;6.952;2023-05-20T09:23:03;3.23;;;2.37;;
14754;SDS011;7469;50.906;6.952;2023-05-20T09:25:33;4.63;;;2.93;;
14754;SDS011;7469;50.906;6.952;2023-05-20T09:28:02;3.07;;;2.70;;
14754;SDS011;7469;50.906;6.952;2023-05-20T09:30:31;3.13;;;2.70;;
14754;SDS011;7469;50.906;6.952;2023-05-20T09:33:00;4.93;;;2.43;;
14754;SDS011;7469;50.906;6.952;2023-05-20T09:35:33;4.07;;;2.30;;
14754;SDS011;7469;50.906;6.952;2023-05-20T09:38:04;5.30;;;2.20;;
14754;SDS011;7469;50.906;6.952;2023-05-20T09:40:32;2.70;;;2.27;;
14754;SDS011;7469;50.906;6.952;2023-05-20T09:43:03;4.27;;;2.73;;
14754;SDS011;7469;50.906;6.952;2023-05-20T09:45:33;5.70;;;2.70;;
14754;SDS011;7469;50.906;6.952;2023-05-20T09:48:03;3.30;;;2.97;;
14754;SDS011;7469;50.906;6.952;2023-05-20T09:50:32;5.50;;;2.40;;
14754;SDS011;7469;50.906;6.952;2023-05-20T09:53:01;3.57;;;2.40;;
14754;SDS011;7469;50.906;6.952;2023-05-20T09:55:30;3.43;;;2.10;;
14754;SDS011;7469;50.906;6.952;2023-05-20T09:58:01;2.80;;;2.50;;
14754;SDS011;7469;50.906;6.952;2023-05-20T10:00:29;3.73;;;2.20;;
14754;SDS011;7469;50.906;6.952;2023-05-20T10:02:58;6.20;;;2.63;;
14754;SDS011;7469;50.906;6.952;2023-05-20T10:05:32;5.77;;;2.50;;
14754;SDS011;7469;50.906;6.952;2023-05-20T10:08:13;3.97;;;2.67;;
14754;SDS011;7469;50.906;6.952;2023-05-20T10:10:55;5.60;;;2.77;;
14754;SDS011;7469;50.906;6.952;2023-05-20T10:13:42;6.73;;;2.23;;
14754;SDS011;7469;50.906;6.952;2023-05-20T10:16:18;2.50;;;2.30;;
14754;SDS011;7469;50.906;6.952;2023-05-20T10:19:04;3.60;;;2.50;;
14754;SDS011;7469;50.906;6.952;2023-05-20T10:21:39;2.40;;;2.20;;
14754;SDS011;7469;50.906;6.952;2023-05-20T10:24:08;3.00;;;2.27;;
14754;SDS011;7469;50.906;6.952;2023-05-20T10:26:37;2.47;;;2.27;;
14754;SDS011;7469;50.906;6.952;2023-05-20T10:29:13;7.93;;;2.13;;
14754;SDS011;7469;50.906;6.952;2023-05-20T10:31:47;2.60;;;2.40;;
14754;SDS011;7469;50.906;6.952;2023-05-20T10:34:16;3.23;;;2.40;;
14754;SDS011;7469;50.906;6.952;2023-05-20T10:36:56;3.80;;;2.20;;
14754;SDS011;7469;50.906;6.952;2023-05-20T10:39:25;2.60;;;2.40;;
14754;SDS011;7469;50.906;6.952;2023-05-20T10:42:04;3.97;;;2.47;;
14754;SDS011;7469;50.906;6.952;2023-05-20T10:44:39;3.00;;;2.50;;
14754;SDS011;7469;50.906;6.952;2023-05-20T10:47:08;2.37;;;2.17;;
14754;SDS011;7469;50.906;6.952;2023-05-20T10:49:40;2.80;;;2.33;;
14754;SDS011;7469;50.906;6.952;2023-05-20T10:52:12;4.03;;;2.60;;
14754;SDS011;7469;50.906;6.952;2023-05-20T10:54:44;3.40;;;2.60;;
14754;SDS011;7469;50.906;6.952;2023-05-20T10:57:16;2.60;;;2.30;;
14754;SDS011;7469;50.906;6.952;2023-05-20T10:59:45;4.60;;;2.70;;
14754;SDS011;7469;50.906;6.952;2023-05-20T11:02:14;2.60;;;2.37;;
14754;SDS011;7469;50.906;6.952;2023-05-20T11:04:43;2.50;;;2.30;;
14754;SDS011;7469;50.906;6.952;2023-05-20T11:07:22;6.70;;;2.70;;
14754;SDS011;7469;50.906;6.952;2023-05-20T11:09:51;3.20;;;2.30;;
14754;SDS011;7469;50.906;6.952;2023-05-20T11:12:20;2.70;;;2.47;;
14754;SDS011;7469;50.906;6.952;2023-05-20T11:14:48;4.23;;;2.90;;
14754;SDS011;7469;50.906;6.952;2023-05-20T11:17:17;3.17;;;2.80;;
14754;SDS011;7469;50.906;6.952;2023-05-20T11:19:46;3.77;;;2.80;;
14754;SDS011;7469;50.906;6.952;2023-05-20T11:22:16;3.13;;;2.67;;
14754;SDS011;7469;50.906;6.952;2023-05-20T11:24:44;4.97;;;3.00;;
14754;SDS011;7469;50.906;6.952;2023-05-20T11:27:13;3.80;;;3.33;;
14754;SDS011;7469;50.906;6.952;2023-05-20T11:29:41;4.13;;;3.20;;
14754;SDS011;7469;50.906;6.952;2023-05-20T11:32:09;3.63;;;2.80;;
14754;SDS011;7469;50.906;6.952;2023-05-20T11:34:38;4.00;;;2.70;;
14754;SDS011;7469;50.906;6.952;2023-05-20T11:37:08;3.20;;;2.70;;
14754;SDS011;7469;50.906;6.952;2023-05-20T11:39:38;3.53;;;3.00;;
14754;SDS011;7469;50.906;6.952;2023-05-20T11:42:06;3.43;;;2.80;;
14754;SDS011;7469;50.906;6.952;2023-05-20T11:44:34;4.33;;;3.30;;
14754;SDS011;7469;50.906;6.952;2023-05-20T11:47:03;3.20;;;2.80;;
14754;SDS011;7469;50.906;6.952;2023-05-20T11:49:38;4.23;;;2.77;;
14754;SDS011;7469;50.906;6.952;2023-05-20T11:52:07;5.17;;;3.10;;
14754;SDS011;7469;50.906;6.952;2023-05-20T11:54:36;3.10;;;2.80;;
14754;SDS011;7469;50.906;6.952;2023-05-20T11:57:06;4.47;;;2.83;;
14754;SDS011;7469;50.906;6.952;2023-05-20T11:59:34;3.90;;;3.10;;
14754;SDS011;7469;50.906;6.952;2023-05-20T12:02:02;6.87;;;2.70;;
14754;SDS011;7469;50.906;6.952;2023-05-20T12:04:30;4.50;;;2.93;;
14754;SDS011;7469;50.906;6.952;2023-05-20T12:06:58;10.47;;;3.40;;
14754;SDS011;7469;50.906;6.952;2023-05-20T12:09:27;5.30;;;3.23;;
14754;SDS011;7469;50.906;6.952;2023-05-20T12:11:56;5.23;;;2.90;;
14754;SDS011;7469;50.906;6.952;2023-05-20T12:14:24;3.03;;;2.83;;
14754;SDS011;7469;50.906;6.952;2023-05-20T12:16:52;4.83;;;3.10;;
14754;SDS011;7469;50.906;6.952;2023-05-20T12:19:20;3.83;;;3.10;;
14754;SDS011;7469;50.906;6.952;2023-05-20T12:21:48;3.70;;;2.87;;
14754;SDS011;7469;50.906;6.952;2023-05-20T12:24:18;3.07;;;2.70;;
14754;SDS011;7469;50.906;6.952;2023-05-20T12:26:46;6.70;;;3.13;;
14754;SDS011;7469;50.906;6.952;2023-05-20T12:29:15;3.27;;;2.93;;
14754;SDS011;7469;50.906;6.952;2023-05-20T12:31:43;5.93;;;3.00;;
14754;SDS011;7469;50.906;6.952;2023-05-20T12:34:12;3.77;;;3.27;;
14754;SDS011;7469;50.906;6.952;2023-05-20T12:36:40;4.13;;;2.83;;
14754;SDS011;7469;50.906;6.952;2023-05-20T12:39:08;3.47;;;3.17;;
14754;SDS011;7469;50.906;6.952;2023-05-20T12:41:36;6.13;;;3.00;;
14754;SDS011;7469;50.906;6.952;2023-05-20T12:44:04;5.03;;;3.40;;
14754;SDS011;7469;50.906;6.952;2023-05-20T12:46:33;3.77;;;3.20;;
14754;SDS011;7469;50.906;6.952;2023-05-20T12:49:02;3.50;;;3.20;;
14754;SDS011;7469;50.906;6.952;2023-05-20T12:51:30;5.20;;;3.33;;
14754;SDS011;7469;50.906;6.952;2023-05-20T12:53:58;2.93;;;2.63;;
14754;SDS011;7469;50.906;6.952;2023-05-20T12:56:26;3.60;;;3.30;;
14754;SDS011;7469;50.906;6.952;2023-05-20T12:58:55;4.53;;;3.00;;
14754;SDS011;7469;50.906;6.952;2023-05-20T13:01:24;4.53;;;3.30;;
14754;SDS011;7469;50.906;6.952;2023-05-20T13:03:53;3.17;;;2.87;;
14754;SDS011;7469;50.906;6.952;2023-05-20T13:06:21;3.37;;;3.03;;
14754;SDS011;7469;50.906;6.952;2023-05-20T13:08:49;3.47;;;3.17;;
14754;SDS011;7469;50.906;6.952;2023-05-20T13:11:17;4.20;;;3.00;;
14754;SDS011;7469;50.906;6.952;2023-05-20T13:13:45;3.50;;;3.20;;
14754;SDS011;7469;50.906;6.952;2023-05-20T13:16:13;4.37;;;3.27;;
14754;SDS011;7469;50.906;6.952;2023-05-20T13:18:42;3.00;;;2.80;;
14754;SDS011;7469;50.906;6.952;2023-05-20T13:21:11;5.23;;;2.90;;
14754;SDS011;7469;50.906;6.952;2023-05-20T13:23:40;4.07;;;3.13;;
14754;SDS011;7469;50.906;6.952;2023-05-20T13:26:08;3.40;;;3.00;;
14754;SDS011;7469;50.906;6.952;2023-05-20T13:28:36;3.27;;;2.97;;
14754;SDS011;7469;50.906;6.952;2023-05-20T13:31:04;3.93;;;2.90;;
14754;SDS011;7469;50.906;6.952;2023-05-20T13:33:33;3.43;;;3.13;;
14754;SDS011;7469;50.906;6.952;2023-05-20T13:36:01;3.80;;;3.40;;
14754;SDS011;7469;50.906;6.952;2023-05-20T13:38:30;3.13;;;2.83;;
14754;SDS011;7469;50.906;6.952;2023-05-20T13:41:00;4.27;;;2.97;;
14754;SDS011;7469;50.906;6.952;2023-05-20T13:43:29;6.33;;;3.47;;
14754;SDS011;7469;50.906;6.952;2023-05-20T13:45:58;3.73;;;3.40;;
14754;SDS011;7469;50.906;6.952;2023-05-20T13:48:26;3.73;;;3.20;;
14754;SDS011;7469;50.906;6.952;2023-05-20T13:50:54;4.97;;;3.17;;
14754;SDS011;7469;50.906;6.952;2023-05-20T13:53:22;5.73;;;3.00;;
14754;SDS011;7469;50.906;6.952;2023-05-20T13:55:52;3.43;;;3.13;;
14754;SDS011;7469;50.906;6.952;2023-05-20T13:58:20;3.73;;;2.90;;
14754;SDS011;7469;50.906;6.952;2023-05-20T14:00:48;5.23;;;2.90;;
14754;SDS011;7469;50.906;6.952;2023-05-20T14:03:16;4.63;;;2.87;;
14754;SDS011;7469;50.906;6.952;2023-05-20T14:05:45;3.70;;;3.40;;
14754;SDS011;7469;50.906;6.952;2023-05-20T14:08:13;3.30;;;2.80;;
14754;SDS011;7469;50.906;6.952;2023-05-20T14:10:41;4.23;;;3.47;;
14754;SDS011;7469;50.906;6.952;2023-05-20T14:13:10;3.43;;;3.13;;
14754;SDS011;7469;50.906;6.952;2023-05-20T14:15:38;3.77;;;3.30;;
14754;SDS011;7469;50.906;6.952;2023-05-20T14:18:06;4.67;;;3.03;;
14754;SDS011;7469;50.906;6.952;2023-05-20T14:20:34;3.43;;;3.13;;
14754;SDS011;7469;50.906;6.952;2023-05-20T14:23:03;4.70;;;3.40;;
14754;SDS011;7469;50.906;6.952;2023-05-20T14:25:31;3.60;;;2.97;;
14754;SDS011;7469;50.906;6.952;2023-05-20T14:27:59;3.53;;;3.17;;
14754;SDS011;7469;50.906;6.952;2023-05-20T14:30:28;3.60;;;3.30;;
14754;SDS011;7469;50.906;6.952;2023-05-20T14:32:56;3.47;;;3.13;;
14754;SDS011;7469;50.906;6.952;2023-05-20T14:35:25;7.93;;;3.50;;
14754;SDS011;7469;50.906;6.952;2023-05-20T14:37:53;3.07;;;2.80;;
14754;SDS011;7469;50.906;6.952;2023-05-20T14:40:21;7.90;;;3.53;;
14754;SDS011;7469;50.906;6.952;2023-05-20T14:42:49;4.27;;;3.10;;
14754;SDS011;7469;50.906;6.952;2023-05-20T14:45:17;3.90;;;3.17;;
14754;SDS011;7469;50.906;6.952;2023-05-20T14:47:47;3.60;;;3.30;;
14754;SDS011;7469;50.906;6.952;2023-05-20T14:50:15;4.17;;;3.40;;
14754;SDS011;7469;50.906;6.952;2023-05-20T14:52:43;3.57;;;3.27;;
14754;SDS011;7469;50.906;6.952;2023-05-20T14:55:11;3.60;;;3.13;;
14754;SDS011;7469;50.906;6.952;2023-05-20T14:57:39;4.13;;;3.23;;
14754;SDS011;7469;50.906;6.952;2023-05-20T15:00:08;3.53;;;3.23;;
14754;SDS011;7469;50.906;6.952;2023-05-20T15:02:37;3.67;;;3.33;;
14754;SDS011;7469;50.906;6.952;2023-05-20T15:05:06;5.63;;;3.40;;
14754;SDS011;7469;50.906;6.952;2023-05-20T15:07:37;4.97;;;3.40;;
14754;SDS011;7469;50.906;6.952;2023-05-20T15:10:06;3.43;;;3.13;;
14754;SDS011;7469;50.906;6.952;2023-05-20T15:12:34;3.53;;;3.10;;
14754;SDS011;7469;50.906;6.952;2023-05-20T15:15:03;5.77;;;3.23;;
14754;SDS011;7469;50.906;6.952;2023-05-20T15:17:31;3.47;;;3.17;;
14754;SDS011;7469;50.906;6.952;2023-05-20T15:19:59;3.70;;;3.30;;